Data for 03/14/2018

Time Sea-Level Adjusted Pressure Absolute Pressure Temperature Relative Humidity Dew Point   
(mb) (inHg) (mb) (inHg) (C) (F) (%) (C) (F)
00:05 1015 29.97 845 24.95 3.7 38.7 46 -6.8 19.7
00:10 1015 29.97 845 24.95 3.5 38.4 45 -7.2 19
00:15 1015 29.97 845 24.95 3.8 38.8 44 -7.3 18.9
00:20 1015 29.97 845 24.95 3.7 38.6 45 -7.2 19.1
00:25 1015 29.97 845 24.95 3.6 38.5 45 -7.3 18.9
00:30 1015 29.97 845 24.95 3.9 39 44 -7.4 18.7
00:35 1015 29.97 845 24.95 4.3 39.7 43 -7.3 18.9
00:40 1015 29.97 845 24.95 4.2 39.5 44 -7 19.4
00:45 1015 29.97 844 24.92 4 39.1 45 -6.9 19.5
00:50 1015 29.97 844 24.92 3.7 38.7 46 -6.9 19.6
00:55 1015 29.97 844 24.92 4 39.1 44 -7.1 19.2
01:00 1015 29.97 844 24.92 4.5 40 44 -6.9 19.6
01:05 1015 29.97 844 24.92 4.2 39.6 45 -6.7 19.9
01:10 1015 29.97 844 24.92 3.9 39 46 -6.8 19.8
01:15 1015 29.97 844 24.92 3.7 38.6 45 -7.1 19.3
01:20 1015 29.97 844 24.92 3.8 38.9 45 -7 19.3
01:25 1015 29.97 844 24.92 3.9 39.1 45 -6.8 19.7
01:30 1015 29.97 844 24.92 3.9 39.1 45 -6.9 19.5
01:35 1015 29.97 844 24.92 3.9 39 45 -7 19.4
01:40 1015 29.97 844 24.92 3.9 39 44 -7.2 19.1
01:45 1015 29.97 844 24.92 4.1 39.4 44 -7 19.4
01:50 1015 29.97 844 24.92 4 39.2 45 -7 19.5
01:55 1015 29.97 844 24.92 4.1 39.3 45 -6.8 19.8
02:00 1015 29.97 844 24.92 3.8 38.9 44 -7.3 18.8
02:05 1015 29.97 844 24.92 4 39.2 45 -6.9 19.6
02:10 1015 29.97 844 24.92 3.8 38.9 45 -6.9 19.5
02:15 1014 29.94 844 24.92 3.7 38.7 45 -7 19.4
02:20 1014 29.94 844 24.92 3.9 39 43 -7.5 18.6
02:25 1014 29.94 844 24.92 4.5 40.1 42 -7.3 18.8
02:30 1014 29.94 844 24.92 4.6 40.3 42 -7.2 19.1
02:35 1014 29.94 844 24.92 4.3 39.7 44 -7 19.4
02:40 1014 29.94 844 24.92 4.1 39.3 44 -7.1 19.2
02:45 1014 29.94 844 24.92 4.6 40.2 40 -7.9 17.8
02:50 1014 29.94 843 24.89 4.8 40.7 43 -6.9 19.7
02:55 1014 29.94 843 24.89 4.5 40 41 -7.7 18.1
03:00 1014 29.94 843 24.89 5 41 40 -7.5 18.5
03:05 1014 29.94 843 24.89 4.9 40.8 41 -7.3 18.9
03:10 1014 29.94 843 24.89 5 41 40 -7.6 18.3
03:15 1014 29.94 843 24.89 5.2 41.4 38 -7.8 17.9
03:20 1014 29.94 843 24.89 5.8 42.4 37 -7.7 18.1
03:25 1014 29.94 843 24.89 5.7 42.2 38 -7.7 18.1
03:30 1014 29.94 843 24.89 5.7 42.3 38 -7.6 18.3
03:35 1014 29.94 843 24.89 5.7 42.2 38 -7.5 18.5
03:40 1014 29.94 843 24.89 5.5 41.8 39 -7.6 18.4
03:45 1014 29.94 843 24.89 5.4 41.7 39 -7.6 18.3
03:50 1013 29.91 843 24.89 5.3 41.6 39 -7.4 18.6
03:55 1013 29.91 843 24.89 5.3 41.5 39 -7.7 18.2
04:00 1013 29.91 843 24.89 5.6 42 38 -7.8 17.9
04:05 1013 29.91 843 24.89 5.6 42.1 38 -7.5 18.5
04:10 1013 29.91 842 24.86 5.4 41.7 39 -7.6 18.3
04:15 1013 29.91 842 24.86 5.4 41.8 39 -7.5 18.5
04:20 1013 29.91 842 24.86 5.2 41.4 39 -7.5 18.4
04:25 1013 29.91 842 24.86 5.5 41.8 39 -7.6 18.4
04:30 1013 29.91 842 24.86 5.3 41.5 40 -7.4 18.7
04:35 1013 29.91 842 24.86 5.2 41.4 41 -6.9 19.6
04:40 1013 29.91 842 24.86 4.5 40.2 41 -7.5 18.6
04:45 1013 29.91 842 24.86 4.7 40.5 42 -7.2 19
04:50 1013 29.91 842 24.86 4.6 40.2 42 -7.3 18.9
04:55 1013 29.91 842 24.86 4.7 40.5 42 -7.2 19.1
05:00 1013 29.91 842 24.86 4.7 40.5 41 -7.3 18.8
05:05 1013 29.91 842 24.86 5.3 41.6 40 -7.3 18.9
05:10 1013 29.91 842 24.86 5.2 41.4 41 -7.1 19.2
05:15 1013 29.91 842 24.86 5.1 41.2 40 -7.5 18.5
05:20 1013 29.91 842 24.86 5.6 42.1 39 -7.4 18.6
05:25 1013 29.91 842 24.86 5.7 42.3 39 -7.2 19
05:30 1013 29.91 842 24.86 5.7 42.3 39 -7.2 19.1
05:35 1013 29.91 842 24.86 5.7 42.3 38 -7.4 18.7
05:40 1013 29.91 842 24.86 5.8 42.4 39 -7.1 19.2
05:45 1013 29.91 842 24.86 5.6 42.1 39 -7.2 19
05:50 1012 29.88 842 24.86 5.6 42 39 -7.4 18.7
05:55 1012 29.88 842 24.86 5.7 42.3 40 -6.8 19.7
06:00 1012 29.88 842 24.86 5.3 41.5 41 -6.9 19.6
06:05 1012 29.88 841 24.83 5.1 41.2 42 -6.8 19.7
06:10 1012 29.88 841 24.83 5.1 41.1 42 -6.9 19.6
06:15 1012 29.88 841 24.83 5.2 41.4 41 -6.8 19.8
06:20 1012 29.88 841 24.83 5 41 42 -6.7 19.9
06:25 1012 29.88 841 24.83 5.2 41.3 41 -6.9 19.6
06:30 1012 29.88 841 24.83 5.6 42.1 41 -6.6 20.2
06:35 1012 29.88 841 24.83 5.7 42.3 40 -6.7 19.9
06:40 1012 29.88 841 24.83 6 42.7 40 -6.7 19.9
06:45 1012 29.88 841 24.83 6.1 43 40 -6.6 20.1
06:50 1012 29.88 841 24.83 6 42.9 40 -6.7 20
06:55 1012 29.88 841 24.83 6 42.9 40 -6.5 20.2
07:00 1012 29.88 841 24.83 5.9 42.6 41 -6.4 20.5
07:05 1012 29.88 841 24.83 5.8 42.5 41 -6.6 20.2
07:10 1011 29.85 841 24.83 5.9 42.7 40 -6.5 20.3
07:15 1011 29.85 841 24.83 6.1 42.9 40 -6.4 20.4
07:20 1011 29.85 841 24.83 5.8 42.5 41 -6.3 20.7
07:25 1011 29.85 841 24.83 5.6 42.1 42 -6.3 20.7
07:30 1011 29.85 841 24.83 5.6 42.1 42 -6.4 20.5
07:35 1011 29.85 841 24.83 5.8 42.4 42 -6.3 20.7
07:40 1011 29.85 841 24.83 5.7 42.2 42 -6.2 20.9
07:45 1011 29.85 840 24.81 5.8 42.4 41 -6.5 20.3
07:50 1011 29.85 840 24.81 6.1 43 40 -6.4 20.5
07:55 1011 29.85 840 24.81 6.3 43.4 40 -6.3 20.7
08:00 1011 29.85 840 24.81 6.5 43.7 39 -6.4 20.6
08:05 1011 29.85 840 24.81 6.7 44 39 -6.2 20.8
08:10 1011 29.85 840 24.81 6.6 43.8 40 -6.1 21
08:15 1011 29.85 840 24.81 6.5 43.8 41 -5.9 21.4
08:20 1011 29.85 840 24.81 6.5 43.7 46 -4.2 24.4
08:25 1011 29.85 840 24.81 6.4 43.6 42 -5.5 22.2
08:30 1011 29.85 840 24.81 6.1 43 43 -5.6 21.9
08:35 1011 29.85 840 24.81 6.1 43 43 -5.6 21.9
08:40 1011 29.85 840 24.81 6.3 43.4 41 -6 21.2
08:45 1011 29.85 840 24.81 6.7 44.1 41 -5.7 21.7
08:50 1011 29.85 840 24.81 7.1 44.7 39 -5.8 21.5
08:55 1010 29.83 840 24.81 7.2 45 39 -5.7 21.7
09:00 1010 29.83 840 24.81 7.5 45.4 38 -6 21.2
09:05 1010 29.83 840 24.81 7.7 45.8 37 -6.2 20.8
09:10 1010 29.83 840 24.81 8 46.3 37 -5.7 21.7
09:15 1010 29.83 840 24.81 7.9 46.1 38 -5.7 21.7
09:20 1010 29.83 840 24.81 7.8 46 39 -5.5 22.2
09:25 1010 29.83 840 24.81 7.5 45.4 39 -5.5 22.1
09:30 1010 29.83 839 24.78 7.3 45.2 41 -5.1 22.8
09:35 1010 29.83 839 24.78 7.2 44.9 41 -5.2 22.7
09:40 1010 29.83 839 24.78 7.2 44.9 40 -5.4 22.3
09:45 1010 29.83 839 24.78 7.5 45.4 39 -5.5 22
09:50 1010 29.83 839 24.78 7.6 45.7 40 -5.3 22.5
09:55 1010 29.83 839 24.78 7.2 44.9 39 -5.7 21.7
10:00 1010 29.83 839 24.78 6.6 43.8 40 -6 21.2
10:05 1010 29.83 839 24.78 6.5 43.7 40 -6 21.2
10:10 1010 29.83 839 24.78 6.2 43.2 41 -6.1 21.1
10:15 1010 29.83 839 24.78 6.2 43.1 41 -6.1 20.9
10:20 1010 29.83 839 24.78 6.3 43.4 40 -6.2 20.8
10:25 1010 29.83 839 24.78 6 42.8 41 -6.3 20.7
10:30 1010 29.83 839 24.78 5.9 42.7 41 -6.3 20.6
10:35 1010 29.83 839 24.78 6.2 43.2 41 -6.2 20.9
10:40 1010 29.83 839 24.78 6 42.8 43 -5.7 21.7
10:45 1010 29.83 839 24.78 5.5 42 43 -6 21.2
10:50 1010 29.83 839 24.78 6.8 44.2 40 -6.1 21.1
10:55 1010 29.83 839 24.78 7.4 45.3 40 -5.5 22.1
11:00 1010 29.83 839 24.78 6.6 43.9 44 -4.9 23.1
11:05 1010 29.83 839 24.78 6.8 44.3 42 -5.2 22.6
11:10 1010 29.83 839 24.78 6.9 44.4 42 -5 22.9
11:15 1010 29.83 839 24.78 7.2 44.9 43 -4.5 24
11:20 1010 29.83 839 24.78 6.9 44.4 41 -5.4 22.4
11:25 1010 29.83 839 24.78 7.1 44.7 42 -4.9 23.1
11:30 1010 29.83 839 24.78 7 44.7 42 -5.1 22.8
11:35 1010 29.83 839 24.78 7.5 45.5 41 -4.9 23.1
11:40 1010 29.83 839 24.78 7.8 46.1 38 -5.5 22.1
11:45 1010 29.83 839 24.78 8.1 46.5 40 -4.7 23.5
11:50 1010 29.83 839 24.78 8.2 46.8 39 -5 23.1
11:55 1010 29.83 839 24.78 9.4 48.9 36 -4.9 23.2
12:00 1010 29.83 839 24.78 9.8 49.7 34 -5.3 22.5
12:05 1009 29.8 839 24.78 9.8 49.6 36 -4.7 23.6
12:10 1009 29.8 839 24.78 9.8 49.6 35 -5.1 22.8
12:15 1009 29.8 838 24.75 9.2 48.5 37 -4.7 23.5
12:20 1009 29.8 838 24.75 9.3 48.8 36 -5.1 22.9
12:25 1009 29.8 838 24.75 10.4 50.6 32 -5.6 21.9
12:30 1009 29.8 838 24.75 10.4 50.8 38 -3.4 25.9
12:35 1009 29.8 838 24.75 11.3 52.4 32 -4.9 23.2
12:40 1009 29.8 838 24.75 12.2 53.9 31 -4.2 24.4
12:45 1009 29.8 838 24.75 12.2 54 33 -3.7 25.3
12:50 1009 29.8 838 24.75 12.2 54 32 -3.8 25.2
12:55 1009 29.8 838 24.75 12.4 54.3 31 -4.1 24.7
13:00 1009 29.8 838 24.75 12.8 55 30 -4.3 24.2
13:05 1009 29.8 838 24.75 13.2 55.8 29 -4.1 24.6
13:10 1009 29.8 838 24.75 13.5 56.3 29 -4.1 24.7
13:15 1009 29.8 838 24.75 13.8 56.8 30 -3.6 25.5
13:20 1009 29.8 838 24.75 13.6 56.4 31 -3.4 25.9
13:25 1009 29.8 838 24.75 13.3 55.9 31 -3.4 25.9
13:30 1009 29.8 838 24.75 12.7 54.9 32 -3.4 25.9
13:35 1009 29.8 838 24.75 12.6 54.7 32 -3.5 25.8
13:40 1009 29.8 838 24.75 12.7 54.9 33 -3.1 26.4
13:45 1009 29.8 838 24.75 12.5 54.5 36 -2.3 27.9
13:50 1009 29.8 838 24.75 12.3 54.1 33 -3.3 26
13:55 1009 29.8 838 24.75 12.1 53.8 37 -2.1 28.2
14:00 1008 29.77 838 24.75 11.6 52.8 36 -3 26.7
14:05 1008 29.77 838 24.75 11.1 51.9 37 -3 26.7
14:10 1008 29.77 837 24.72 10.4 50.6 37 -3.8 25.2
14:15 1008 29.77 837 24.72 10.7 51.2 36 -3.8 25.2
14:20 1008 29.77 837 24.72 11 51.8 37 -3 26.5
14:25 1008 29.77 837 24.72 11.4 52.5 35 -3.5 25.7
14:30 1008 29.77 837 24.72 11.4 52.5 35 -3.4 25.9
14:35 1008 29.77 837 24.72 11.4 52.4 36 -3 26.7
14:40 1008 29.77 837 24.72 10.9 51.6 38 -3 26.7
14:45 1008 29.77 837 24.72 10.8 51.5 37 -3.4 25.9
14:50 1008 29.77 837 24.72 11.1 52 37 -3.1 26.4
14:55 1008 29.77 837 24.72 11.1 52 36 -3.2 26.3
15:00 1008 29.77 837 24.72 10 50.1 39 -3.4 26
15:05 1008 29.77 837 24.72 9.5 49.1 40 -3.3 26.1
15:10 1008 29.77 837 24.72 9.2 48.6 40 -3.8 25.2
15:15 1008 29.77 837 24.72 9.2 48.5 40 -3.7 25.3
15:20 1008 29.77 837 24.72 9.2 48.5 38 -4.2 24.4
15:25 1008 29.77 837 24.72 9.1 48.4 40 -3.8 25.2
15:30 1008 29.77 837 24.72 9.3 48.7 40 -3.7 25.4
15:35 1008 29.77 837 24.72 9.3 48.8 40 -3.6 25.5
15:40 1008 29.77 837 24.72 9.3 48.7 40 -3.6 25.6
15:45 1008 29.77 837 24.72 9.1 48.4 40 -3.8 25.1
15:50 1008 29.77 837 24.72 8.9 48.1 40 -3.8 25.1
15:55 1008 29.77 837 24.72 9.4 48.9 39 -4 24.9
16:00 1008 29.77 837 24.72 9.4 49 40 -3.5 25.7
16:05 1008 29.77 837 24.72 9.6 49.3 39 -3.6 25.5
16:10 1008 29.77 837 24.72 10.1 50.2 38 -3.7 25.4
16:15 1008 29.77 837 24.72 10 49.9 39 -3.3 26.1
16:20 1008 29.77 837 24.72 10.3 50.6 38 -3.2 26.3
16:25 1008 29.77 837 24.72 10.6 51.2 38 -3 26.5
16:30 1007 29.74 837 24.72 10.7 51.2 36 -3.7 25.3
16:35 1007 29.74 837 24.72 10.9 51.7 37 -3.2 26.2
16:40 1007 29.74 837 24.72 11.2 52.1 37 -3 26.6
16:45 1007 29.74 837 24.72 11.1 52 35 -3.7 25.3
16:50 1007 29.74 837 24.72 11 51.7 35 -4 24.9
16:55 1007 29.74 837 24.72 10.9 51.5 37 -3.4 25.9
17:00 1008 29.77 837 24.72 10.7 51.2 39 -2.7 27.1
17:05 1008 29.77 837 24.72 9.9 49.7 43 -2.1 28.3
17:10 1008 29.77 837 24.72 9.3 48.8 43 -2.7 27.2
17:15 1008 29.77 837 24.72 9.3 48.7 43 -2.6 27.3
17:20 1008 29.77 837 24.72 9.7 49.4 44 -1.8 28.7
17:25 1008 29.77 837 24.72 10 50.1 46 -0.9 30.3
17:30 1008 29.77 837 24.72 10.2 50.4 49 0.1 32.1
17:35 1008 29.77 837 24.72 10.2 50.4 51 0.6 33
17:40 1008 29.77 837 24.72 10.2 50.4 51 0.7 33.3
17:45 1007 29.74 837 24.72 10.3 50.6 49 0.2 32.3
17:50 1007 29.74 837 24.72 10.7 51.2 50 0.7 33.2
17:55 1007 29.74 837 24.72 10.7 51.2 50 0.8 33.4
18:00 1007 29.74 837 24.72 10.5 50.9 51 0.9 33.6
18:05 1007 29.74 836 24.69 10.2 50.4 52 0.9 33.5
18:10 1007 29.74 836 24.69 10 50 54 1.1 34
18:15 1007 29.74 836 24.69 9.8 49.7 55 1.2 34.1
18:20 1007 29.74 836 24.69 9.7 49.4 51 0.2 32.3
18:25 1007 29.74 836 24.69 9.5 49.1 48 -1.1 30.1
18:30 1007 29.74 836 24.69 9.4 48.9 49 -0.7 30.7
18:35 1007 29.74 836 24.69 9.4 48.9 50 -0.4 31.2
18:40 1007 29.74 836 24.69 9.5 49 50 -0.3 31.5
18:45 1007 29.74 836 24.69 9.5 49.1 48 -0.8 30.5
18:50 1007 29.74 836 24.69 9.2 48.6 50 -0.7 30.8
18:55 1007 29.74 836 24.69 9.2 48.5 49 -1 30.3
19:00 1007 29.74 836 24.69 9.1 48.3 49 -1 30.2
19:05 1007 29.74 836 24.69 9.3 48.7 48 -1.1 30.1
19:10 1007 29.74 836 24.69 9 48.3 49 -1.1 30.1
19:15 1007 29.74 836 24.69 9 48.1 48 -1.3 29.6
19:20 1007 29.74 836 24.69 9.1 48.4 48 -1.2 29.8
19:25 1007 29.74 836 24.69 9.6 49.2 47 -1 30.2
19:30 1007 29.74 836 24.69 9.7 49.5 47 -0.9 30.4
19:35 1007 29.74 836 24.69 9.7 49.5 48 -0.7 30.7
19:40 1007 29.74 836 24.69 9.6 49.2 52 0.1 32.2
19:45 1007 29.74 836 24.69 9.5 49.1 50 -0.5 31.1
19:50 1007 29.74 836 24.69 8.9 47.9 55 0.2 32.4
19:55 1007 29.74 836 24.69 8.9 47.9 53 -0.3 31.5
20:00 1007 29.74 836 24.69 8.9 48 56 0.5 32.9
20:05 1007 29.74 836 24.69 8.4 47 60 1.2 34.1
20:10 1007 29.74 836 24.69 7.2 45 64 0.9 33.6
20:15 1007 29.74 836 24.69 6.5 43.7 67 0.8 33.5
20:20 1007 29.74 836 24.69 5.9 42.6 68 0.5 32.9
20:25 1007 29.74 836 24.69 5.4 41.8 69 0.3 32.5
20:30 1007 29.74 836 24.69 5.3 41.5 71 0.3 32.6
20:35 1007 29.74 836 24.69 5.1 41.2 70 0.1 32.2
20:40 1007 29.74 836 24.69 5.1 41.2 70 0.1 32.3
20:45 1007 29.74 836 24.69 5.1 41.2 71 0.2 32.4
20:50 1007 29.74 836 24.69 5.2 41.4 70 0.1 32.2
20:55 1007 29.74 836 24.69 5.3 41.5 70 0.2 32.4
21:00 1007 29.74 836 24.69 5.4 41.8 70 0.4 32.6
21:05 1007 29.74 836 24.69 5.5 41.9 70 0.5 32.9
21:10 1007 29.74 836 24.69 5.5 41.9 71 0.7 33.2
21:15 1007 29.74 836 24.69 5.3 41.6 73 0.8 33.5
21:20 1007 29.74 836 24.69 5.3 41.5 73 0.8 33.5
21:25 1007 29.74 836 24.69 5.1 41.2 74 0.8 33.5
21:30 1007 29.74 836 24.69 5 41 74 0.8 33.5
21:35 1007 29.74 836 24.69 4.9 40.9 75 0.9 33.5
21:40 1007 29.74 836 24.69 4.8 40.6 75 0.8 33.4
21:45 1007 29.74 836 24.69 4.8 40.6 75 0.8 33.4
21:50 1007 29.74 836 24.69 4.7 40.5 76 0.8 33.5
21:55 1007 29.74 836 24.69 4.7 40.4 76 0.8 33.4
22:00 1007 29.74 836 24.69 4.7 40.5 75 0.8 33.4
22:05 1007 29.74 836 24.69 4.8 40.7 75 0.8 33.4
22:10 1007 29.74 836 24.69 4.9 40.8 75 0.9 33.6
22:15 1007 29.74 836 24.69 4.9 40.8 76 0.9 33.7
22:20 1007 29.74 836 24.69 5 40.9 75 0.9 33.6
22:25 1007 29.74 836 24.69 5 41 75 1 33.7
22:30 1007 29.74 836 24.69 5 41.1 75 1.1 33.9
22:35 1007 29.74 836 24.69 5 41.1 76 1.1 34
22:40 1007 29.74 836 24.69 5 41 77 1.2 34.2
22:45 1007 29.74 836 24.69 4.7 40.5 79 1.3 34.4
22:50 1007 29.74 836 24.69 4.2 39.5 81 1.2 34.1
22:55 1007 29.74 836 24.69 3.7 38.7 82 0.9 33.7
23:00 1007 29.74 836 24.69 3.5 38.3 82 0.8 33.4
23:05 1007 29.74 836 24.69 3.4 38.1 83 0.8 33.5
23:10 1007 29.74 836 24.69 3.2 37.8 84 0.7 33.3
23:15 1007 29.74 836 24.69 3.2 37.7 83 0.6 33.1
23:20 1007 29.74 836 24.69 3.2 37.8 83 0.5 32.9
23:25 1007 29.74 836 24.69 3.3 38 82 0.5 32.8
23:30 1007 29.74 836 24.69 3.5 38.2 81 0.4 32.8
23:35 1006 29.71 836 24.69 3.5 38.4 80 0.4 32.8
23:40 1006 29.71 836 24.69 3.5 38.3 81 0.5 32.9
23:45 1006 29.71 835 24.66 3.5 38.3 81 0.5 32.9
23:50 1006 29.71 835 24.66 3.5 38.3 81 0.5 32.9
23:55 1006 29.71 835 24.66 3.4 38.2 81 0.5 32.9
24:00 1006 29.71 835 24.66 3.3 38 82 0.5 33